createdAt,value
2022-11-09T00:00:01.445Z,115.17
2022-11-09T00:02:43.716Z,117.97
2022-11-09T00:05:20.261Z,115.87
2022-11-09T00:07:55.246Z,119.23
2022-11-09T00:10:30.275Z,114.50
2022-11-09T00:13:05.978Z,119.40
2022-11-09T00:15:40.854Z,116.67
2022-11-09T00:18:15.516Z,113.87
2022-11-09T00:20:51.760Z,114.13
2022-11-09T00:23:26.915Z,111.37
2022-11-09T00:26:06.181Z,109.47
2022-11-09T00:28:59.177Z,110.97
2022-11-09T00:31:34.102Z,109.90
2022-11-09T00:34:10.077Z,110.70
2022-11-09T00:36:47.396Z,114.37
2022-11-09T00:39:21.878Z,114.93
2022-11-09T00:41:56.244Z,111.83
2022-11-09T00:44:30.941Z,111.57
2022-11-09T00:47:05.816Z,110.23
2022-11-09T00:49:39.101Z,111.50
2022-11-09T00:52:14.886Z,108.77
2022-11-09T00:54:49.869Z,107.77
2022-11-09T00:57:23.534Z,109.10
2022-11-09T00:59:57.860Z,109.13
2022-11-09T01:02:31.752Z,105.33
2022-11-09T01:05:06.506Z,106.07
2022-11-09T01:07:43.901Z,105.63
2022-11-09T01:10:18.634Z,103.77
2022-11-09T01:12:54.583Z,107.60
2022-11-09T01:15:29.595Z,108.87
2022-11-09T01:18:04.100Z,105.27
2022-11-09T01:20:38.247Z,106.47
2022-11-09T01:23:15.069Z,105.10
2022-11-09T01:25:50.155Z,103.63
2022-11-09T01:28:23.707Z,105.23
2022-11-09T01:30:58.972Z,103.50
2022-11-09T01:33:34.587Z,102.87
2022-11-09T01:36:10.911Z,103.37
2022-11-09T01:38:47.582Z,108.33
2022-11-09T01:41:23.709Z,107.17
2022-11-09T01:44:14.987Z,109.93
2022-11-09T01:46:56.117Z,107.40
2022-11-09T01:49:42.084Z,110.30
2022-11-09T01:52:21.611Z,108.47
2022-11-09T01:55:01.788Z,104.03
2022-11-09T01:57:39.719Z,103.17
2022-11-09T02:00:16.988Z,105.90
2022-11-09T02:02:56.656Z,104.00
2022-11-09T02:05:34.083Z,102.77
2022-11-09T02:08:11.175Z,101.77
2022-11-09T02:10:52.621Z,102.13
2022-11-09T02:13:29.691Z,102.73
2022-11-09T02:16:05.338Z,102.20
2022-11-09T02:18:56.928Z,104.60
2022-11-09T02:21:34.642Z,103.87
2022-11-09T02:24:08.829Z,103.20
2022-11-09T02:26:53.631Z,106.60
2022-11-09T02:29:31.445Z,104.27
2022-11-09T02:32:11.801Z,106.27
2022-11-09T02:34:49.737Z,103.57
2022-11-09T02:37:33.016Z,103.87
2022-11-09T02:40:12.290Z,105.00
2022-11-09T02:42:46.439Z,104.63
2022-11-09T02:45:20.276Z,104.17
2022-11-09T02:47:55.486Z,104.13
2022-11-09T02:50:29.867Z,105.13
2022-11-09T02:53:08.586Z,103.03
2022-11-09T02:55:45.471Z,101.93
2022-11-09T02:58:24.302Z,101.57
2022-11-09T03:00:57.697Z,99.53
2022-11-09T03:03:33.748Z,100.37
2022-11-09T03:06:10.886Z,101.93
2022-11-09T03:08:50.924Z,103.90
2022-11-09T03:11:26.779Z,105.03
2022-11-09T03:14:01.236Z,104.30
2022-11-09T03:16:36.780Z,104.47
2022-11-09T03:19:12.371Z,104.37
2022-11-09T03:21:47.896Z,104.77
2022-11-09T03:24:24.284Z,102.27
2022-11-09T03:27:02.283Z,101.23
2022-11-09T03:29:36.643Z,104.33
2022-11-09T03:32:12.753Z,109.33
2022-11-09T03:34:47.530Z,105.03
2022-11-09T03:37:23.067Z,104.77
2022-11-09T03:40:00.012Z,106.77
2022-11-09T03:42:34.081Z,106.83
2022-11-09T03:45:08.362Z,106.37
2022-11-09T03:47:47.158Z,106.40
2022-11-09T03:50:22.108Z,108.80
2022-11-09T03:52:56.067Z,105.73
2022-11-09T03:55:33.397Z,105.70
2022-11-09T03:58:08.073Z,107.50
2022-11-09T04:00:42.844Z,112.43
2022-11-09T04:03:17.244Z,108.50
2022-11-09T04:05:52.043Z,108.43
2022-11-09T04:08:27.106Z,105.23
2022-11-09T04:11:03.553Z,108.07
2022-11-09T04:13:38.353Z,108.20
2022-11-09T04:16:12.946Z,108.87
2022-11-09T04:18:46.993Z,106.30
2022-11-09T04:21:24.035Z,105.83
2022-11-09T04:23:58.896Z,109.23
2022-11-09T04:26:35.744Z,109.43
2022-11-09T04:29:10.209Z,110.70
2022-11-09T04:31:44.288Z,108.00
2022-11-09T04:34:19.499Z,107.80
2022-11-09T04:36:53.336Z,108.77
2022-11-09T04:39:28.650Z,108.53
2022-11-09T04:42:03.803Z,109.60
2022-11-09T04:44:38.472Z,109.00
2022-11-09T04:47:12.819Z,109.80
2022-11-09T04:49:47.151Z,109.77
2022-11-09T04:52:21.175Z,106.90
2022-11-09T04:54:55.501Z,108.57
2022-11-09T04:57:32.808Z,109.83
2022-11-09T05:00:07.387Z,106.17
2022-11-09T05:02:42.435Z,106.63
2022-11-09T05:05:16.568Z,106.87
2022-11-09T05:07:51.105Z,106.07
2022-11-09T05:10:26.142Z,102.50
2022-11-09T05:15:57.713Z,104.60
2022-11-09T05:18:32.194Z,104.30
2022-11-09T05:21:06.832Z,99.13
2022-11-09T05:23:56.824Z,102.37
2022-11-09T05:26:33.362Z,97.97
2022-11-09T05:29:10.191Z,100.83
2022-11-09T05:31:52.132Z,98.63
2022-11-09T05:34:25.903Z,101.00
2022-11-09T05:37:03.498Z,96.30
2022-11-09T05:39:37.433Z,100.47
2022-11-09T05:42:11.887Z,100.97
2022-11-09T05:44:47.710Z,99.53
2022-11-09T05:47:23.666Z,97.37
2022-11-09T05:49:57.047Z,97.93
2022-11-09T05:52:32.267Z,95.90
2022-11-09T05:55:06.374Z,97.67
2022-11-09T05:57:40.711Z,96.33
2022-11-09T06:00:17.743Z,93.10
2022-11-09T06:02:51.852Z,94.33
2022-11-09T06:05:25.587Z,93.60
2022-11-09T06:08:00.384Z,93.20
2022-11-09T06:10:34.634Z,95.03
2022-11-09T06:13:09.752Z,98.97
2022-11-09T06:15:45.242Z,95.57
2022-11-09T06:18:19.486Z,98.00
2022-11-09T06:20:57.001Z,98.00
2022-11-09T06:23:31.549Z,93.57
2022-11-09T06:26:07.942Z,98.00
2022-11-09T06:28:43.555Z,92.63
2022-11-09T06:31:22.261Z,95.87
2022-11-09T06:33:56.083Z,96.00
2022-11-09T06:36:30.412Z,95.50
2022-11-09T06:39:04.096Z,95.37
2022-11-09T06:41:38.173Z,98.07
2022-11-09T06:44:11.818Z,95.77
2022-11-09T06:46:47.232Z,97.93
2022-11-09T06:49:21.304Z,94.83
2022-11-09T06:51:54.829Z,95.37
2022-11-09T06:54:29.331Z,93.10
2022-11-09T06:57:03.098Z,94.87
2022-11-09T06:59:36.870Z,95.40
2022-11-09T07:02:14.671Z,94.27
2022-11-09T07:04:49.317Z,95.63
2022-11-09T07:07:27.709Z,93.20
2022-11-09T07:10:02.932Z,91.30
2022-11-09T07:12:37.016Z,90.20
2022-11-09T07:15:11.415Z,90.27
2022-11-09T07:17:48.340Z,89.17
2022-11-09T07:20:23.275Z,90.70
2022-11-09T07:22:58.471Z,90.37
2022-11-09T07:25:33.800Z,82.90
2022-11-09T07:28:12.686Z,85.07
2022-11-09T07:30:46.573Z,83.77
2022-11-09T07:33:24.866Z,82.90
2022-11-09T07:35:58.727Z,83.87
2022-11-09T07:38:33.376Z,80.93
2022-11-09T07:41:08.326Z,81.53
2022-11-09T07:43:42.101Z,83.37
2022-11-09T07:46:16.490Z,80.53
2022-11-09T07:48:52.692Z,80.43
2022-11-09T07:51:28.227Z,81.90
2022-11-09T07:54:02.563Z,79.13
2022-11-09T07:56:36.833Z,82.20
2022-11-09T07:59:12.644Z,80.20
2022-11-09T08:01:47.617Z,79.43
2022-11-09T08:04:24.147Z,79.57
2022-11-09T08:06:59.459Z,78.73
2022-11-09T08:09:35.077Z,75.40
2022-11-09T08:12:09.716Z,76.90
2022-11-09T08:14:44.585Z,75.93
2022-11-09T08:17:18.898Z,78.60
2022-11-09T08:20:09.635Z,80.67
2022-11-09T08:22:48.490Z,82.23
2022-11-09T08:25:23.213Z,81.50
2022-11-09T08:27:56.697Z,81.50
2022-11-09T08:30:48.792Z,81.30
2022-11-09T08:33:24.320Z,83.50
2022-11-09T08:36:01.068Z,83.73
2022-11-09T08:38:35.248Z,85.73
2022-11-09T08:41:13.427Z,88.07
2022-11-09T08:44:06.420Z,86.03
2022-11-09T08:46:41.474Z,91.77
2022-11-09T08:49:15.521Z,91.57
2022-11-09T08:51:51.329Z,90.83
2022-11-09T08:54:26.058Z,93.87
2022-11-09T08:57:00.642Z,91.50
2022-11-09T08:59:37.986Z,92.67
2022-11-09T09:02:14.620Z,90.40
2022-11-09T09:04:48.569Z,92.27
2022-11-09T09:07:24.456Z,92.27
2022-11-09T09:09:58.071Z,91.03
2022-11-09T09:12:32.962Z,90.67
2022-11-09T09:15:06.675Z,90.70
2022-11-09T09:17:41.393Z,91.97
2022-11-09T09:20:15.928Z,86.27
2022-11-09T09:22:51.890Z,85.67
2022-11-09T09:25:26.578Z,86.03
2022-11-09T09:28:00.093Z,86.67
2022-11-09T09:30:34.224Z,85.60
2022-11-09T09:33:08.759Z,85.03
2022-11-09T09:35:44.491Z,86.03
2022-11-09T09:38:21.178Z,87.17
2022-11-09T09:41:02.598Z,86.07
2022-11-09T09:43:43.363Z,87.37
2022-11-09T09:46:24.712Z,86.50
2022-11-09T09:49:01.974Z,84.20
2022-11-09T09:51:41.901Z,86.40
2022-11-09T09:54:25.632Z,80.60
2022-11-09T09:57:04.464Z,82.20
2022-11-09T09:59:43.737Z,83.53
2022-11-09T10:02:26.465Z,81.40
2022-11-09T10:05:02.859Z,81.27
2022-11-09T10:07:43.860Z,82.20
2022-11-09T10:10:41.098Z,82.87
2022-11-09T10:13:42.860Z,82.57
2022-11-09T10:16:25.981Z,82.13
2022-11-09T10:19:27.693Z,80.03
2022-11-09T10:22:14.328Z,81.20
2022-11-09T10:25:23.692Z,78.43
2022-11-09T10:27:58.468Z,79.03
2022-11-09T10:30:38.911Z,78.33
2022-11-09T10:33:25.036Z,80.00
2022-11-09T10:36:08.211Z,80.00
2022-11-09T10:38:57.725Z,77.23
2022-11-09T10:41:57.338Z,79.63
2022-11-09T10:44:56.128Z,79.07
2022-11-09T10:48:01.884Z,76.33
2022-11-09T10:51:04.782Z,78.23
2022-11-09T10:54:22.449Z,78.00
2022-11-09T10:57:21.733Z,77.93
2022-11-09T11:00:27.393Z,74.43
2022-11-09T11:03:22.708Z,74.67
2022-11-09T11:06:22.209Z,73.77
2022-11-09T11:09:24.802Z,73.03
2022-11-09T11:12:21.646Z,74.87
2022-11-09T11:15:27.917Z,75.67
2022-11-09T11:18:24.337Z,74.33
2022-11-09T11:21:20.347Z,75.80
2022-11-09T11:24:38.327Z,75.07
2022-11-09T11:27:35.283Z,76.17
2022-11-09T11:30:37.429Z,74.40
2022-11-09T11:33:30.520Z,71.83
2022-11-09T11:36:28.171Z,72.83
2022-11-09T11:39:35.413Z,75.30
2022-11-09T11:42:40.836Z,73.00
2022-11-09T11:45:43.248Z,73.80
2022-11-09T11:48:57.998Z,75.73
2022-11-09T11:51:57.149Z,75.33
2022-11-09T11:55:09.582Z,77.37
2022-11-09T11:58:20.056Z,74.53
2022-11-09T12:01:30.823Z,72.10
2022-11-09T12:04:42.802Z,74.00
2022-11-09T12:07:42.920Z,70.57
2022-11-09T12:10:46.815Z,70.10
2022-11-09T12:13:51.939Z,70.67
2022-11-09T12:16:53.046Z,70.57
2022-11-09T12:19:58.007Z,68.83
2022-11-09T12:22:58.511Z,73.13
2022-11-09T12:26:00.670Z,71.47
2022-11-09T12:29:11.712Z,69.40
2022-11-09T12:32:16.210Z,68.60
2022-11-09T12:35:24.876Z,68.10
2022-11-09T12:38:22.136Z,72.13
2022-11-09T12:41:21.075Z,70.43
2022-11-09T12:44:19.381Z,70.73
2022-11-09T12:47:20.838Z,71.30
2022-11-09T12:50:19.845Z,69.53
2022-11-09T12:53:14.902Z,70.33
2022-11-09T12:56:10.699Z,68.77
2022-11-09T12:59:33.542Z,72.13
2022-11-09T13:02:38.562Z,69.43
2022-11-09T13:05:36.675Z,71.00
2022-11-09T13:08:32.740Z,74.33
2022-11-09T13:11:31.142Z,72.97
2022-11-09T13:14:44.383Z,72.87
2022-11-09T13:18:08.838Z,72.47
2022-11-09T13:21:02.472Z,74.43
2022-11-09T13:24:02.313Z,73.40
2022-11-09T13:27:06.114Z,74.27
2022-11-09T13:29:58.797Z,72.17
2022-11-09T13:33:26.749Z,75.77
2022-11-09T13:36:23.447Z,73.17
2022-11-09T13:39:38.277Z,76.10
2022-11-09T13:42:36.815Z,75.00
2022-11-09T13:45:42.328Z,75.50
2022-11-09T13:48:50.594Z,76.27
2022-11-09T13:51:50.938Z,76.33
2022-11-09T13:54:52.379Z,76.03
2022-11-09T13:57:48.745Z,78.53
2022-11-09T14:00:41.481Z,80.43
2022-11-09T14:03:37.677Z,78.40
2022-11-09T14:06:35.017Z,80.87
2022-11-09T14:09:27.800Z,82.50
2022-11-09T14:12:43.612Z,81.83
2022-11-09T14:15:53.470Z,83.40
2022-11-09T14:18:58.600Z,83.67
2022-11-09T14:21:55.721Z,83.23
2022-11-09T14:24:48.571Z,84.80
2022-11-09T14:27:41.472Z,86.67
2022-11-09T14:30:35.634Z,84.00
2022-11-09T14:33:30.572Z,85.77
2022-11-09T14:36:23.043Z,88.43
2022-11-09T14:39:35.311Z,88.77
2022-11-09T14:42:32.290Z,89.70
2022-11-09T14:45:26.926Z,88.43
2022-11-09T14:48:24.242Z,87.33
2022-11-09T14:51:18.067Z,89.67
2022-11-09T14:54:17.154Z,87.37
2022-11-09T14:57:10.924Z,91.87
2022-11-09T15:00:04.505Z,89.20
2022-11-09T15:02:57.936Z,86.37
2022-11-09T15:05:51.906Z,85.60
2022-11-09T15:08:52.875Z,86.03
2022-11-09T15:11:45.607Z,84.23
2022-11-09T15:14:41.392Z,83.53
2022-11-09T15:17:36.978Z,79.40
2022-11-09T15:20:34.193Z,81.77
2022-11-09T15:23:43.685Z,84.50
2022-11-09T15:26:48.183Z,82.63
2022-11-09T15:29:48.208Z,83.33
2022-11-09T15:32:44.079Z,81.67
2022-11-09T15:35:37.261Z,82.60
2022-11-09T15:38:42.102Z,79.97
2022-11-09T15:41:35.875Z,80.13
2022-11-09T15:44:29.318Z,78.50
2022-11-09T15:47:32.644Z,82.83
2022-11-09T15:50:27.326Z,80.17
2022-11-09T15:53:20.443Z,78.73
2022-11-09T15:56:16.040Z,80.17
2022-11-09T15:59:09.564Z,78.90
2022-11-09T16:02:01.397Z,79.00
2022-11-09T16:04:56.602Z,78.87
2022-11-09T16:07:54.704Z,79.53
2022-11-09T16:10:47.842Z,78.57
2022-11-09T16:13:40.804Z,78.17
2022-11-09T16:16:34.884Z,78.70
2022-11-09T16:19:26.753Z,76.67
2022-11-09T16:22:22.011Z,79.67
2022-11-09T16:25:14.981Z,78.33
2022-11-09T16:28:08.325Z,77.63
2022-11-09T16:31:01.191Z,77.27
2022-11-09T16:33:53.649Z,76.37
2022-11-09T16:36:50.830Z,76.33
2022-11-09T16:39:46.344Z,77.70
2022-11-09T16:42:39.691Z,79.03
2022-11-09T16:45:33.744Z,80.27
2022-11-09T16:48:25.775Z,79.90
2022-11-09T16:51:18.945Z,78.20
2022-11-09T16:54:11.639Z,76.53
2022-11-09T16:57:07.470Z,80.30
2022-11-09T17:00:00.585Z,78.57
2022-11-09T17:02:52.176Z,79.03
2022-11-09T17:05:44.997Z,79.37
2022-11-09T17:08:54.028Z,80.37
2022-11-09T17:11:46.774Z,77.93
2022-11-09T17:14:40.773Z,80.27
2022-11-09T17:17:34.345Z,79.47
2022-11-09T17:20:27.759Z,80.30
2022-11-09T17:23:22.147Z,86.40
2022-11-09T17:26:15.062Z,80.43
2022-11-09T17:29:08.008Z,79.03
2022-11-09T17:32:02.685Z,79.00
2022-11-09T17:34:54.869Z,78.17
2022-11-09T17:38:05.530Z,78.97
2022-11-09T17:40:58.312Z,77.40
2022-11-09T17:43:51.752Z,79.77
2022-11-09T17:46:44.099Z,79.20
2022-11-09T17:49:38.610Z,80.83
2022-11-09T17:52:29.921Z,77.83
2022-11-09T17:55:21.843Z,78.27
2022-11-09T17:58:14.418Z,77.50
2022-11-09T18:01:11.527Z,77.13
2022-11-09T18:04:06.430Z,76.80
2022-11-09T18:07:00.677Z,77.57
2022-11-09T18:09:53.811Z,77.57
2022-11-09T18:12:45.567Z,78.10
2022-11-09T18:15:40.794Z,78.87
2022-11-09T18:18:33.594Z,77.83
2022-11-09T18:21:26.459Z,76.87
2022-11-09T18:24:21.519Z,78.03
2022-11-09T18:27:13.571Z,78.77
2022-11-09T18:30:06.655Z,79.70
2022-11-09T18:32:58.734Z,78.83
2022-11-09T18:35:58.196Z,77.47
2022-11-09T18:38:49.601Z,77.60
2022-11-09T18:41:44.064Z,76.83
2022-11-09T18:44:37.162Z,78.57
2022-11-09T18:47:29.958Z,79.50
2022-11-09T18:50:23.128Z,76.43
2022-11-09T18:53:15.552Z,79.20
2022-11-09T18:56:09.498Z,78.67
2022-11-09T18:59:05.307Z,78.00
2022-11-09T19:01:57.224Z,79.20
2022-11-09T19:04:50.140Z,77.97
2022-11-09T19:07:42.788Z,79.87
2022-11-09T19:10:36.842Z,80.20
2022-11-09T19:13:29.959Z,82.20
2022-11-09T19:16:24.302Z,81.57
2022-11-09T19:19:18.107Z,82.73
2022-11-09T19:22:18.899Z,81.33
2022-11-09T19:25:11.990Z,81.00
2022-11-09T19:28:04.273Z,82.73
2022-11-09T19:30:57.325Z,81.47
2022-11-09T19:33:51.295Z,80.83
2022-11-09T19:36:42.830Z,82.40
2022-11-09T19:39:37.046Z,83.27
2022-11-09T19:42:31.656Z,83.43
2022-11-09T19:45:24.414Z,79.63
2022-11-09T19:48:16.984Z,80.53
2022-11-09T19:51:11.856Z,81.53
2022-11-09T19:54:05.719Z,81.33
2022-11-09T19:56:58.661Z,78.27
2022-11-09T19:59:51.311Z,80.53
2022-11-09T20:02:43.155Z,80.60
2022-11-09T20:05:37.695Z,78.43
2022-11-09T20:08:31.454Z,77.97
2022-11-09T20:11:41.799Z,77.83
2022-11-09T20:14:34.436Z,79.63
2022-11-09T20:17:26.997Z,78.63
2022-11-09T20:20:18.944Z,76.90
2022-11-09T20:23:11.914Z,78.37
2022-11-09T20:26:13.145Z,77.93
2022-11-09T20:29:05.026Z,76.87
2022-11-09T20:31:57.768Z,80.07
2022-11-09T20:34:50.661Z,77.40
2022-11-09T20:37:42.034Z,78.27
2022-11-09T20:40:35.102Z,77.57
2022-11-09T20:43:29.251Z,78.73
2022-11-09T20:46:23.289Z,78.53
2022-11-09T20:49:16.246Z,78.70
2022-11-09T20:52:09.140Z,78.17
2022-11-09T20:55:01.655Z,77.20
2022-11-09T20:57:54.067Z,78.50
2022-11-09T21:00:48.186Z,75.13
2022-11-09T21:03:40.673Z,77.63
2022-11-09T21:06:33.571Z,75.13
2022-11-09T21:09:26.190Z,77.67
2022-11-09T21:12:28.954Z,77.83
2022-11-09T21:15:21.315Z,76.03
2022-11-09T21:18:16.308Z,78.00
2022-11-09T21:21:13.841Z,78.63
2022-11-09T21:24:21.190Z,77.70
2022-11-09T21:27:30.720Z,75.10
2022-11-09T21:30:24.454Z,76.47
2022-11-09T21:33:19.587Z,76.23
2022-11-09T21:36:14.757Z,75.50
2022-11-09T21:39:08.096Z,76.60
2022-11-09T21:42:01.720Z,76.93
2022-11-09T21:44:54.071Z,74.30
2022-11-09T21:47:45.706Z,77.00
2022-11-09T21:50:40.552Z,77.13
2022-11-09T21:53:33.868Z,76.80
2022-11-09T21:56:26.261Z,74.97
2022-11-09T21:59:18.759Z,74.47
2022-11-09T22:02:13.007Z,76.03
2022-11-09T22:05:06.279Z,74.90
2022-11-09T22:08:05.013Z,79.47
2022-11-09T22:10:57.560Z,78.30
2022-11-09T22:14:05.246Z,76.40
2022-11-09T22:16:57.248Z,78.07
2022-11-09T22:20:05.033Z,77.30
2022-11-09T22:22:58.852Z,75.87
2022-11-09T22:25:51.562Z,80.77
2022-11-09T22:28:44.061Z,78.30
2022-11-09T22:31:35.671Z,79.20
2022-11-09T22:34:28.145Z,77.87
2022-11-09T22:37:20.877Z,77.93
2022-11-09T22:40:16.989Z,79.47
2022-11-09T22:43:08.150Z,78.03
2022-11-09T22:45:59.686Z,78.87
2022-11-09T22:49:12.467Z,77.40
2022-11-09T22:52:05.360Z,76.77
2022-11-09T22:54:56.762Z,80.10
2022-11-09T22:57:51.179Z,79.73
2022-11-09T23:00:43.499Z,81.43
2022-11-09T23:03:34.637Z,80.03
2022-11-09T23:06:27.346Z,80.83
2022-11-09T23:09:19.531Z,80.17
2022-11-09T23:12:13.536Z,80.17
2022-11-09T23:15:08.366Z,81.40
2022-11-09T23:18:17.274Z,81.53
2022-11-09T23:21:09.691Z,79.33
2022-11-09T23:24:03.706Z,80.23
2022-11-09T23:26:55.894Z,80.33
2022-11-09T23:29:47.645Z,82.27
2022-11-09T23:32:41.961Z,80.27
2022-11-09T23:35:34.488Z,79.30
2022-11-09T23:38:27.409Z,81.73
2022-11-09T23:41:20.359Z,77.90
2022-11-09T23:44:12.821Z,79.80
2022-11-09T23:47:05.349Z,78.13
2022-11-09T23:49:59.312Z,79.60
2022-11-09T23:52:51.882Z,79.10
2022-11-09T23:55:44.875Z,79.37
2022-11-09T23:58:38.275Z,80.90
